Meadow, South Dakota
Current Conditions -  °F | °C
As of 9:53 AM on Tuesday 21 Oct 2014 (Local Time) from KHEI Reporting Station
Clear Clear  
Wind Chill: 13°   Ceiling: Unl
Heat Index: 13°   Visibility: 10mi
Dew Point:   Wind: 8mph
Humidity: 57%   Direction: 130°SE
Pressure: 29.76"   Gusts: NA
Location:  45.53°N, 102.22°W
Report Text: KHEI 211553Z AUTO 13007KT 10SM CLR 13/05 A2976 RMK AO2 SLP077 T01330050
Loading
Personal Weather Stations






























Interactive Weather Map
Tropical Storm Tracking
New forecast layout! Learn more

10-Day Weather Forecast

Advertisements
Track Severe Weather on mobile